map of ZDY home
ZDY - Airport
Location
City:  Delma Island, Abu Dhabi, United Arab Emirates
Near (Alt.):Dalma Island
Name:Delma Airport
ICAO:OMDL
IATA:ZDY

Details
Type:Airport (Aerodrome, Airfield)
Use:Public/Civil
Latitude:2430'35"N (24.509722)
Longitude:5220'06"E (52.335000)
Elevation:25 ft (8 m)
Variation:2.33E (WMM2015v2 magnetic declination)
0.05 annual change
Runways:1
Longest:8202 × 213 ft (2500 × 65 m), paved

Time
Time Zone:UTC+4
Local Time:

Weather
METAR:OMDL 041400Z 34011KT 290V040 8000 FEW025 SCT120 20/11 Q1020 A3013

Related Locations
Nearby:
Farthest:GMR: 11979 mi / 19278 km
Mangareva [Totegegie], Gambier Islands, PF

Find:

   beyond  
but within

Other Information
Maps:
NOTAMs:
Links:
Sources:

  
  • flag of United Arab Emirates
  • flag of Abu Dhabi
  

Sectional Chart

Flight Planning
at skyvector.com

Satellite Image

Google Maps Satellite view

 

Copyright © 2004-2019 Karl L. Swartz. All rights reserved.
The Great Circle Mapper name and logo are trademarks of the Great Circle Mapper.
All other trademarks mentioned herein belong to their respective owners.
Please see credits for attibutions and further copyright information.

  Follow gcmap on Facebook Follow gcmap on Twitter GCmap on LinkedIn

hCard Microformat

Geo Microformat